createdAt,value
2019-04-14T00:00:40.498Z,1.2399
2019-04-14T00:01:43.877Z,1.2601
2019-04-14T00:02:46.867Z,1.2601
2019-04-14T00:03:52.184Z,1.2601
2019-04-14T00:04:56.978Z,1.2701
2019-04-14T00:06:00.528Z,1.2601
2019-04-14T00:07:03.912Z,1.2198
2019-04-14T00:08:08.768Z,1.2198
2019-04-14T00:09:11.848Z,1.1996
2019-04-14T00:10:16.071Z,1.1996
2019-04-14T00:11:21.154Z,1.1996
2019-04-14T00:12:25.137Z,1.1996
2019-04-14T00:13:28.534Z,1.1996
2019-04-14T00:14:31.515Z,1.2299
2019-04-14T00:15:39.632Z,1.2601
2019-04-14T00:16:42.935Z,1.2601
2019-04-14T00:17:47.882Z,1.2601
2019-04-14T00:18:51.323Z,1.2903
2019-04-14T00:19:56.580Z,1.2903
2019-04-14T00:20:59.890Z,1.2701
2019-04-14T00:22:05.194Z,1.2399
2019-04-14T00:23:09.006Z,1.2399
2019-04-14T00:24:12.179Z,1.2601
2019-04-14T00:25:15.945Z,1.2701
2019-04-14T00:26:20.491Z,1.2399
2019-04-14T00:27:23.652Z,1.2601
2019-04-14T00:28:27.114Z,1.2601
2019-04-14T00:29:30.641Z,1.2601
2019-04-14T00:30:33.761Z,1.2601
2019-04-14T00:31:35.254Z,1.2601
2019-04-14T00:32:37.921Z,1.2601
2019-04-14T00:33:41.214Z,1.2701
2019-04-14T00:34:44.246Z,1.2601
2019-04-14T00:35:47.256Z,1.2601
2019-04-14T00:36:50.295Z,1.2903
2019-04-14T00:37:53.398Z,1.2701
2019-04-14T00:38:56.350Z,1.2701
2019-04-14T00:39:59.725Z,1.2701
2019-04-14T00:41:02.930Z,1.2601
2019-04-14T00:42:06.672Z,1.1996
2019-04-14T00:43:11.300Z,1.1996
2019-04-14T00:44:14.625Z,1.1996
2019-04-14T00:45:30.609Z,1.1594
2019-04-14T00:46:25.954Z,1.1795
2019-04-14T00:47:28.921Z,1.2198
2019-04-14T00:48:34.860Z,1.2299
2019-04-14T00:49:39.836Z,1.2399
2019-04-14T00:50:43.091Z,1.2601
2019-04-14T00:51:46.220Z,1.2701
2019-04-14T00:52:50.149Z,1.3004
2019-04-14T00:53:53.591Z,1.3004
2019-04-14T00:54:57.101Z,1.3306
2019-04-14T00:56:01.963Z,1.3205
2019-04-14T00:57:05.217Z,1.3608
2019-04-14T00:58:08.952Z,1.3406
2019-04-14T00:59:13.647Z,1.3406
2019-04-14T01:00:18.809Z,1.3205
2019-04-14T01:01:24.272Z,1.2903
2019-04-14T01:02:27.926Z,1.2701
2019-04-14T01:03:32.836Z,1.2601
2019-04-14T01:04:36.797Z,1.2601
2019-04-14T01:05:39.818Z,1.2601
2019-04-14T01:06:42.620Z,1.2601
2019-04-14T01:07:45.939Z,1.2601
2019-04-14T01:08:51.064Z,1.2903
2019-04-14T01:09:55.273Z,1.2903
2019-04-14T01:10:58.863Z,1.2701
2019-04-14T01:12:01.804Z,1.3004
2019-04-14T01:13:08.083Z,1.2701
2019-04-14T01:14:12.642Z,1.2903
2019-04-14T01:15:15.801Z,1.3004
2019-04-14T01:16:21.669Z,1.3004
2019-04-14T01:17:26.593Z,1.3306
2019-04-14T01:18:29.857Z,1.3306
2019-04-14T01:19:33.186Z,1.3306
2019-04-14T01:20:36.802Z,1.3004
2019-04-14T01:21:39.263Z,1.2701
2019-04-14T01:22:42.844Z,1.2701
2019-04-14T01:23:45.766Z,1.2399
2019-04-14T01:24:50.994Z,1.2299
2019-04-14T01:25:54.864Z,1.2198
2019-04-14T01:26:57.886Z,1.1996
2019-04-14T01:28:02.497Z,1.1996
2019-04-14T01:29:05.991Z,1.1795
2019-04-14T01:30:11.167Z,1.1594
2019-04-14T01:31:14.193Z,1.1392
2019-04-14T01:32:17.584Z,1.1090
2019-04-14T01:33:20.538Z,1.1090
2019-04-14T01:34:23.945Z,1.1090
2019-04-14T01:35:27.808Z,1.1090
2019-04-14T01:36:31.957Z,1.1090
2019-04-14T01:37:35.602Z,1.1090
2019-04-14T01:38:38.996Z,1.0889
2019-04-14T01:39:43.507Z,1.1090
2019-04-14T01:40:46.706Z,1.1392
2019-04-14T01:41:50.013Z,1.1191
2019-04-14T01:42:54.831Z,1.1493
2019-04-14T01:43:58.350Z,1.1594
2019-04-14T01:45:01.832Z,1.1795
2019-04-14T01:46:11.693Z,1.2198
2019-04-14T01:47:12.178Z,1.2299
2019-04-14T01:48:17.063Z,1.1996
2019-04-14T01:49:20.340Z,1.2299
2019-04-14T01:50:23.503Z,1.2299
2019-04-14T01:51:26.884Z,1.2399
2019-04-14T01:52:30.357Z,1.2903
2019-04-14T01:53:33.603Z,1.2903
2019-04-14T01:54:36.735Z,1.3004
2019-04-14T01:55:39.853Z,1.3004
2019-04-14T01:56:42.822Z,1.2903
2019-04-14T01:57:44.210Z,1.2903
2019-04-14T01:58:49.042Z,1.2601
2019-04-14T01:59:52.866Z,1.2299
2019-04-14T02:00:55.941Z,1.2198
2019-04-14T02:01:59.204Z,1.1996
2019-04-14T02:03:02.670Z,1.1996
2019-04-14T02:04:05.175Z,1.1996
2019-04-14T02:05:08.249Z,1.1996
2019-04-14T02:06:11.480Z,1.1996
2019-04-14T02:07:14.544Z,1.1996
2019-04-14T02:08:17.707Z,1.1996
2019-04-14T02:09:20.861Z,1.2198
2019-04-14T02:10:24.232Z,1.2198
2019-04-14T02:11:29.036Z,1.2299
2019-04-14T02:12:32.424Z,1.2399
2019-04-14T02:13:35.459Z,1.2299
2019-04-14T02:14:38.803Z,1.2701
2019-04-14T02:15:42.086Z,1.3004
2019-04-14T02:16:50.864Z,1.3306
2019-04-14T02:17:54.680Z,1.3406
2019-04-14T02:18:57.436Z,1.3406
2019-04-14T02:20:03.212Z,1.3608
2019-04-14T02:21:06.916Z,1.3708
2019-04-14T02:22:11.569Z,1.3708
2019-04-14T02:23:14.706Z,1.3708
2019-04-14T02:24:17.867Z,1.3608
2019-04-14T02:25:21.206Z,1.3608
2019-04-14T02:26:26.163Z,1.3608
2019-04-14T02:27:30.006Z,1.3708
2019-04-14T02:28:33.201Z,1.3708
2019-04-14T02:29:38.272Z,1.4212
2019-04-14T02:30:54.026Z,1.4111
2019-04-14T02:32:17.985Z,1.4514
2019-04-14T02:33:36.974Z,1.4716
2019-04-14T02:34:41.600Z,1.4514
2019-04-14T02:35:50.298Z,1.4413
2019-04-14T02:36:56.892Z,1.4413
2019-04-14T02:38:02.025Z,1.4212
2019-04-14T02:39:10.414Z,1.4212
2019-04-14T02:41:43.664Z,1.4413
2019-04-14T02:42:36.617Z,1.4413
2019-04-14T02:43:39.620Z,1.4716
2019-04-14T02:44:44.270Z,1.5018
2019-04-14T02:45:59.321Z,1.5118
2019-04-14T02:47:14.587Z,1.5219
2019-04-14T02:48:31.492Z,1.5219
2019-04-14T02:49:12.428Z,1.5219
2019-04-14T02:50:26.490Z,1.5521
2019-04-14T02:52:46.388Z,1.5421
2019-04-14T02:54:58.757Z,1.5823
2019-04-14T02:56:11.587Z,1.6226
2019-04-14T02:57:16.726Z,1.6226
2019-04-14T02:58:34.629Z,1.6327
2019-04-14T02:59:32.018Z,1.6226
2019-04-14T03:01:50.795Z,1.6327
2019-04-14T03:02:47.221Z,1.6528
2019-04-14T03:03:56.430Z,1.6528
2019-04-14T03:05:13.394Z,1.6629
2019-04-14T03:07:34.070Z,1.6629
2019-04-14T03:09:42.501Z,1.6931
2019-04-14T03:11:24.579Z,1.6830
2019-04-14T03:12:01.615Z,1.6931
2019-04-14T03:13:15.486Z,1.6830
2019-04-14T03:14:17.105Z,1.6629
2019-04-14T03:15:25.344Z,1.6327
2019-04-14T03:16:43.744Z,1.6528
2019-04-14T03:17:58.525Z,1.6025
2019-04-14T03:18:44.649Z,1.5924
2019-04-14T03:21:11.111Z,1.5823
2019-04-14T03:22:23.085Z,1.5823
2019-04-14T03:23:30.886Z,1.5823
2019-04-14T03:24:27.280Z,1.5823
2019-04-14T03:25:29.589Z,1.6025
2019-04-14T03:26:41.916Z,1.6226
2019-04-14T03:27:56.821Z,1.6226
2019-04-14T03:28:58.969Z,1.6528
2019-04-14T03:30:17.394Z,1.6327
2019-04-14T03:31:52.662Z,1.6226
2019-04-14T03:34:52.288Z,1.6226
2019-04-14T03:39:17.434Z,1.6025
2019-04-14T03:40:18.582Z,1.5924
2019-04-14T03:43:36.985Z,1.5924
2019-04-14T03:44:48.676Z,1.5823
2019-04-14T03:46:01.049Z,1.5823
2019-04-14T03:47:25.603Z,1.5421
2019-04-14T03:49:24.879Z,1.5521
2019-04-14T03:50:29.067Z,1.5521
2019-04-14T03:51:44.489Z,1.5219
2019-04-14T03:53:05.859Z,1.5421
2019-04-14T03:53:51.994Z,1.5421
2019-04-14T03:55:04.162Z,1.5521
2019-04-14T03:55:55.363Z,1.5823
2019-04-14T03:56:59.936Z,1.5924
2019-04-14T03:58:03.759Z,1.6025
2019-04-14T03:59:06.442Z,1.6327
2019-04-14T04:00:09.859Z,1.5924
2019-04-14T04:01:15.091Z,1.5924
2019-04-14T04:02:18.316Z,1.5521
2019-04-14T04:03:21.841Z,1.5521
2019-04-14T04:04:25.216Z,1.5118
2019-04-14T04:05:30.223Z,1.5018
2019-04-14T04:06:33.491Z,1.4816
2019-04-14T04:07:36.503Z,1.4514
2019-04-14T04:08:39.821Z,1.4413
2019-04-14T04:09:43.383Z,1.4212
2019-04-14T04:10:47.241Z,1.4111
2019-04-14T04:11:50.196Z,1.3708
2019-04-14T04:12:53.269Z,1.3608
2019-04-14T04:13:56.456Z,1.3608
2019-04-14T04:14:59.742Z,1.3406
2019-04-14T04:16:02.960Z,1.3306
2019-04-14T04:17:06.183Z,1.3406
2019-04-14T04:18:09.893Z,1.3406
2019-04-14T04:19:15.017Z,1.3406
2019-04-14T04:20:19.757Z,1.3306
2019-04-14T04:21:22.869Z,1.3406
2019-04-14T04:22:26.023Z,1.3608
2019-04-14T04:23:29.843Z,1.3708
2019-04-14T04:24:33.541Z,1.3608
2019-04-14T04:25:37.928Z,1.3406
2019-04-14T04:26:41.309Z,1.3406
2019-04-14T04:27:44.843Z,1.3205
2019-04-14T04:28:47.864Z,1.3205
2019-04-14T04:29:50.595Z,1.3004
2019-04-14T04:30:53.703Z,1.3205
2019-04-14T04:31:56.931Z,1.3004
2019-04-14T04:33:02.230Z,1.2903
2019-04-14T04:34:05.963Z,1.2903
2019-04-14T04:35:10.731Z,1.2903
2019-04-14T04:36:13.925Z,1.3205
2019-04-14T04:37:17.840Z,1.3004
2019-04-14T04:38:20.931Z,1.3004
2019-04-14T04:39:24.183Z,1.3004
2019-04-14T04:40:31.338Z,1.3004
2019-04-14T04:41:34.736Z,1.3004
2019-04-14T04:42:37.318Z,1.3004
2019-04-14T04:43:41.100Z,1.2903
2019-04-14T04:44:44.892Z,1.3004
2019-04-14T04:45:47.584Z,1.2701
2019-04-14T04:46:50.846Z,1.2701
2019-04-14T04:47:53.840Z,1.2701
2019-04-14T04:49:07.256Z,1.2701
2019-04-14T04:50:04.831Z,1.2701
2019-04-14T04:51:07.827Z,1.2903
2019-04-14T04:52:12.659Z,1.3004
2019-04-14T04:53:18.100Z,1.2903
2019-04-14T04:54:21.214Z,1.2701
2019-04-14T04:55:24.240Z,1.3004
2019-04-14T04:56:27.528Z,1.3004
2019-04-14T04:57:30.644Z,1.3205
2019-04-14T04:58:33.205Z,1.3004
2019-04-14T04:59:36.707Z,1.3205
2019-04-14T05:00:39.497Z,1.3205
2019-04-14T05:01:42.932Z,1.3205
2019-04-14T05:02:46.175Z,1.3306
2019-04-14T05:03:49.301Z,1.3406
2019-04-14T05:04:52.664Z,1.3306
2019-04-14T05:05:55.782Z,1.3406
2019-04-14T05:06:59.241Z,1.3306
2019-04-14T05:08:02.279Z,1.3306
2019-04-14T05:09:05.630Z,1.3306
2019-04-14T05:10:08.994Z,1.3306
2019-04-14T05:11:12.901Z,1.3406
2019-04-14T05:12:17.432Z,1.3406
2019-04-14T05:13:20.787Z,1.3406
2019-04-14T05:14:24.080Z,1.3608
2019-04-14T05:15:27.007Z,1.3406
2019-04-14T05:16:30.896Z,1.3608
2019-04-14T05:17:34.350Z,1.3608
2019-04-14T05:18:37.846Z,1.3708
2019-04-14T05:19:41.973Z,1.3708
2019-04-14T05:20:46.316Z,1.4111
2019-04-14T05:21:49.530Z,1.4212
2019-04-14T05:22:52.987Z,1.4212
2019-04-14T05:23:58.063Z,1.4413
2019-04-14T05:25:01.452Z,1.4212
2019-04-14T05:26:04.942Z,1.4413
2019-04-14T05:27:09.938Z,1.4413
2019-04-14T05:28:13.402Z,1.4716
2019-04-14T05:29:16.825Z,1.4816
2019-04-14T05:30:19.758Z,1.4816
2019-04-14T05:31:22.873Z,1.5018
2019-04-14T05:32:26.790Z,1.5018
2019-04-14T05:33:29.394Z,1.5118
2019-04-14T05:34:32.665Z,1.5219
2019-04-14T05:35:35.913Z,1.5219
2019-04-14T05:36:38.929Z,1.5421
2019-04-14T05:37:42.796Z,1.5421
2019-04-14T05:38:47.423Z,1.5219
2019-04-14T05:39:51.189Z,1.5219
2019-04-14T05:40:56.102Z,1.5219
2019-04-14T05:42:06.546Z,1.5421
2019-04-14T05:43:07.185Z,1.5118
2019-04-14T05:44:10.228Z,1.5018
2019-04-14T05:45:13.384Z,1.5118
2019-04-14T05:46:16.377Z,1.5118
2019-04-14T05:47:19.723Z,1.5421
2019-04-14T05:48:22.856Z,1.5219
2019-04-14T05:49:34.870Z,1.5421
2019-04-14T05:50:35.631Z,1.5823
2019-04-14T05:51:39.382Z,1.5924
2019-04-14T05:52:42.875Z,1.5924
2019-04-14T05:53:45.990Z,1.6226
2019-04-14T05:54:49.948Z,1.6327
2019-04-14T05:55:54.628Z,1.6830
2019-04-14T05:56:57.997Z,1.6830
2019-04-14T05:58:01.454Z,1.7032
2019-04-14T05:59:04.397Z,1.7334
2019-04-14T06:00:08.152Z,1.7737
2019-04-14T06:01:11.365Z,1.8140
2019-04-14T06:02:15.940Z,1.8442
2019-04-14T06:03:21.305Z,1.8643
2019-04-14T06:04:31.055Z,1.8845
2019-04-14T06:05:36.162Z,1.9046
2019-04-14T06:06:39.222Z,1.9046
2019-04-14T06:07:42.927Z,1.9147
2019-04-14T06:08:46.758Z,1.9147
2019-04-14T06:09:49.822Z,1.9147
2019-04-14T06:10:53.035Z,1.9348
2019-04-14T06:11:56.691Z,1.9751
2019-04-14T06:12:59.787Z,1.9751
2019-04-14T06:14:01.172Z,1.9852
2019-04-14T06:15:04.852Z,1.9751
2019-04-14T06:16:07.783Z,1.9751
2019-04-14T06:17:10.803Z,1.9751
2019-04-14T06:18:13.889Z,1.9852
2019-04-14T06:19:16.255Z,1.9550
2019-04-14T06:20:19.188Z,1.9550
2019-04-14T06:21:22.181Z,1.9852
2019-04-14T06:22:25.169Z,1.9852
2019-04-14T06:23:28.807Z,1.9852
2019-04-14T06:24:31.795Z,1.9952
2019-04-14T06:25:36.375Z,1.9952
2019-04-14T06:26:39.885Z,2.0154
2019-04-14T06:27:43.450Z,2.0154
2019-04-14T06:28:45.882Z,2.0456
2019-04-14T06:29:49.089Z,2.0456
2019-04-14T06:30:52.839Z,2.0557
2019-04-14T06:31:55.004Z,2.0557
2019-04-14T06:32:58.846Z,2.0557
2019-04-14T06:34:01.180Z,2.0657
2019-04-14T06:35:04.919Z,2.0657
2019-04-14T06:36:08.879Z,2.0859
2019-04-14T06:37:11.255Z,2.0859
2019-04-14T06:38:14.718Z,2.1161
2019-04-14T06:39:17.175Z,2.1161
2019-04-14T06:40:20.221Z,2.1362
2019-04-14T06:41:23.859Z,2.1362
2019-04-14T06:42:27.819Z,2.1161
2019-04-14T06:43:30.297Z,2.1362
2019-04-14T06:44:33.796Z,2.1362
2019-04-14T06:45:37.006Z,2.1362
2019-04-14T06:46:40.203Z,2.1362
2019-04-14T06:47:43.923Z,2.1362
2019-04-14T06:49:02.005Z,2.1564
2019-04-14T06:50:05.196Z,2.1564
2019-04-14T06:51:08.194Z,2.1564
2019-04-14T06:52:11.176Z,2.1664
2019-04-14T06:53:14.295Z,2.1765
2019-04-14T06:54:17.797Z,2.2067
2019-04-14T06:55:20.186Z,2.2067
2019-04-14T06:56:23.780Z,2.2067
2019-04-14T06:57:26.873Z,2.2269
2019-04-14T06:58:29.195Z,2.2067
2019-04-14T06:59:32.873Z,2.2067
2019-04-14T07:00:37.235Z,2.2269
2019-04-14T07:01:40.204Z,2.2269
2019-04-14T07:02:45.570Z,2.2470
2019-04-14T07:03:51.968Z,2.2470
2019-04-14T07:04:55.170Z,2.2672
2019-04-14T07:06:00.210Z,2.2772
2019-04-14T07:07:03.805Z,2.2772
2019-04-14T07:08:06.207Z,2.2672
2019-04-14T07:09:09.172Z,2.2470
2019-04-14T07:10:12.185Z,2.2470
2019-04-14T07:11:17.215Z,2.2369
2019-04-14T07:12:19.964Z,2.2269
2019-04-14T07:13:23.827Z,2.2269
2019-04-14T07:14:31.686Z,2.2369
2019-04-14T07:15:36.230Z,2.2470
2019-04-14T07:16:41.223Z,2.2470
2019-04-14T07:17:44.180Z,2.2470
2019-04-14T07:18:46.782Z,2.2672
2019-04-14T07:20:01.011Z,2.2772
2019-04-14T07:20:57.186Z,2.3074
2019-04-14T07:22:00.196Z,2.2974
2019-04-14T07:23:03.178Z,2.2772
2019-04-14T07:24:06.173Z,2.2772
2019-04-14T07:25:09.233Z,2.2369
2019-04-14T07:26:12.203Z,2.2470
2019-04-14T07:27:15.806Z,2.2772
2019-04-14T07:28:18.855Z,2.2974
2019-04-14T07:29:21.181Z,2.3477
2019-04-14T07:30:24.794Z,2.3477
2019-04-14T07:31:27.739Z,2.4081
2019-04-14T07:32:30.177Z,2.4484
2019-04-14T07:33:33.903Z,2.4887
2019-04-14T07:34:38.969Z,2.5290
2019-04-14T07:35:42.917Z,2.5693
2019-04-14T07:36:47.012Z,2.6297
2019-04-14T07:37:50.180Z,2.6901
2019-04-14T07:38:53.909Z,2.7505
2019-04-14T07:39:57.874Z,2.7808
2019-04-14T07:41:00.186Z,2.7808
2019-04-14T07:42:03.291Z,2.8110
2019-04-14T07:43:06.914Z,2.7808
2019-04-14T07:44:10.182Z,2.7808
2019-04-14T07:45:13.996Z,2.7707
2019-04-14T07:46:17.845Z,2.7505
2019-04-14T07:47:19.203Z,2.7405
2019-04-14T07:48:22.901Z,2.7203
2019-04-14T07:49:26.885Z,2.7103
2019-04-14T07:50:29.256Z,2.7203
2019-04-14T07:51:31.881Z,2.7405
2019-04-14T07:52:34.893Z,2.7203
2019-04-14T07:53:37.259Z,2.7203
2019-04-14T07:54:41.393Z,2.7203
2019-04-14T07:55:44.168Z,2.6901
2019-04-14T07:56:47.924Z,2.6398
2019-04-14T07:57:52.358Z,2.5693
2019-04-14T07:58:55.807Z,2.5290
2019-04-14T07:59:58.876Z,2.5290
2019-04-14T08:01:01.233Z,2.4786
2019-04-14T08:02:03.184Z,2.4887
2019-04-14T08:03:06.208Z,2.5189
2019-04-14T08:04:09.184Z,2.5592
2019-04-14T08:05:12.166Z,2.5290
2019-04-14T08:06:15.194Z,2.4887
2019-04-14T08:07:18.858Z,2.4484
2019-04-14T08:08:21.195Z,2.4484
2019-04-14T08:09:25.080Z,2.4081
2019-04-14T08:10:28.230Z,2.3880
2019-04-14T08:11:31.737Z,2.3779
2019-04-14T08:12:35.328Z,2.3779
2019-04-14T08:13:37.894Z,2.3477
2019-04-14T08:14:41.131Z,2.3376
2019-04-14T08:15:44.936Z,2.3376
2019-04-14T08:16:48.824Z,2.3376
2019-04-14T08:17:51.931Z,2.3477
2019-04-14T08:18:55.895Z,2.3477
2019-04-14T08:19:59.892Z,2.3477
2019-04-14T08:21:02.271Z,2.3578
2019-04-14T08:22:05.182Z,2.3779
2019-04-14T08:23:08.848Z,2.4081
2019-04-14T08:24:11.785Z,2.4484
2019-04-14T08:25:14.880Z,2.4887
2019-04-14T08:26:18.298Z,2.5290
2019-04-14T08:27:21.774Z,2.5290
2019-04-14T08:28:25.293Z,2.5391
2019-04-14T08:29:28.956Z,2.5693
2019-04-14T08:30:32.219Z,2.5894
2019-04-14T08:31:35.914Z,2.6096
2019-04-14T08:32:39.841Z,2.6096
2019-04-14T08:33:42.781Z,2.6297
2019-04-14T08:34:45.181Z,2.6096
2019-04-14T08:35:48.189Z,2.5995
2019-04-14T08:36:51.921Z,2.5995
2019-04-14T08:37:55.843Z,2.5894
2019-04-14T08:38:58.195Z,2.5995
2019-04-14T08:40:01.897Z,2.5995
2019-04-14T08:41:05.968Z,2.5894
2019-04-14T08:42:10.261Z,2.5894
2019-04-14T08:43:13.227Z,2.6096
2019-04-14T08:44:16.167Z,2.6297
2019-04-14T08:45:19.186Z,2.6297
2019-04-14T08:46:22.192Z,2.6096
2019-04-14T08:47:24.776Z,2.6398
2019-04-14T08:48:27.185Z,2.6599
2019-04-14T08:49:30.823Z,2.6700
2019-04-14T08:50:39.408Z,2.7103
2019-04-14T08:51:41.873Z,2.7203
2019-04-14T08:52:45.883Z,2.7405
2019-04-14T08:53:48.248Z,2.7405
2019-04-14T08:54:51.757Z,2.7505
2019-04-14T08:55:55.186Z,2.7505
2019-04-14T08:56:58.219Z,2.7808
2019-04-14T08:58:04.004Z,2.8110
2019-04-14T08:59:07.185Z,2.8210
2019-04-14T09:00:10.189Z,2.8412
2019-04-14T09:01:13.733Z,2.8513
2019-04-14T09:02:16.896Z,2.8513
2019-04-14T09:03:19.256Z,2.8915
2019-04-14T09:04:22.888Z,2.9016
2019-04-14T09:05:26.077Z,2.9520
2019-04-14T09:06:29.818Z,3.0225
2019-04-14T09:07:32.800Z,3.0627
2019-04-14T09:08:35.170Z,3.1332
2019-04-14T09:09:38.176Z,3.1735
2019-04-14T09:10:41.173Z,3.2138
2019-04-14T09:11:44.188Z,3.2944
2019-04-14T09:12:47.182Z,3.3548
2019-04-14T09:13:49.964Z,3.3951
2019-04-14T09:14:57.324Z,3.4454
2019-04-14T09:15:59.795Z,3.5159
2019-04-14T09:17:02.895Z,3.5965
2019-04-14T09:18:06.032Z,3.6469
2019-04-14T09:19:09.832Z,3.6871
2019-04-14T09:20:12.197Z,3.7173
2019-04-14T09:21:15.191Z,3.7576
2019-04-14T09:22:18.202Z,3.7778
2019-04-14T09:23:20.183Z,3.7979
2019-04-14T09:24:23.173Z,3.7979
2019-04-14T09:25:26.169Z,3.8583
2019-04-14T09:26:29.188Z,3.8583
2019-04-14T09:27:32.176Z,3.8986
2019-04-14T09:28:35.854Z,3.9288
2019-04-14T09:29:39.038Z,3.9590
2019-04-14T09:30:42.197Z,3.9389
2019-04-14T09:31:45.829Z,3.9389
2019-04-14T09:32:48.884Z,3.9590
2019-04-14T09:33:51.926Z,3.9389
2019-04-14T09:34:55.846Z,3.9691
2019-04-14T09:35:58.840Z,3.9993
2019-04-14T09:37:01.968Z,4.0195
2019-04-14T09:38:05.190Z,4.0396
2019-04-14T09:39:09.360Z,4.0497
2019-04-14T09:40:12.868Z,4.0799
2019-04-14T09:41:14.922Z,4.1101
2019-04-14T09:42:19.248Z,4.1202
2019-04-14T09:43:22.871Z,4.1202
2019-04-14T09:44:26.530Z,4.1403
2019-04-14T09:45:29.199Z,4.1605
2019-04-14T09:46:32.869Z,4.2209
2019-04-14T09:47:35.897Z,4.2612
2019-04-14T09:48:42.787Z,4.3216
2019-04-14T09:49:46.182Z,4.3619
2019-04-14T09:50:49.185Z,4.4022
2019-04-14T09:51:52.297Z,4.3619
2019-04-14T09:52:55.191Z,4.3417
2019-04-14T09:53:58.227Z,4.3619
2019-04-14T09:55:01.185Z,4.4122
2019-04-14T09:56:04.301Z,4.4727
2019-04-14T09:57:07.838Z,4.5129
2019-04-14T09:58:10.315Z,4.5230
2019-04-14T09:59:14.640Z,4.5432
2019-04-14T10:00:18.008Z,4.5532
2019-04-14T10:01:20.190Z,4.6036
2019-04-14T10:02:23.184Z,4.6036
2019-04-14T10:03:26.183Z,4.6237
2019-04-14T10:04:29.198Z,4.6539
2019-04-14T10:05:32.175Z,4.6237
2019-04-14T10:06:35.911Z,4.5532
2019-04-14T10:07:39.749Z,4.5029
2019-04-14T10:08:42.894Z,4.4727
2019-04-14T10:09:46.110Z,4.4424
2019-04-14T10:10:49.798Z,4.4525
2019-04-14T10:11:56.029Z,4.4525
2019-04-14T10:13:00.200Z,4.4727
2019-04-14T10:14:02.877Z,4.4727
2019-04-14T10:15:05.877Z,4.5029
2019-04-14T10:16:07.843Z,4.5432
2019-04-14T10:17:10.197Z,4.6237
2019-04-14T10:18:15.211Z,4.6741
2019-04-14T10:19:18.938Z,4.7546
2019-04-14T10:20:22.858Z,4.8050
2019-04-14T10:21:27.074Z,4.8352
2019-04-14T10:22:34.217Z,4.8352
2019-04-14T10:23:39.507Z,4.8553
2019-04-14T10:24:43.243Z,4.8856
2019-04-14T10:25:46.197Z,4.9158
2019-04-14T10:26:49.255Z,4.9359
2019-04-14T10:27:52.835Z,4.9561
2019-04-14T10:28:55.213Z,4.9863
2019-04-14T10:29:58.907Z,5.0165
2019-04-14T10:31:02.926Z,5.0366
2019-04-14T10:32:06.216Z,5.0870
2019-04-14T10:33:09.190Z,5.1172
2019-04-14T10:34:12.926Z,5.1474
2019-04-14T10:35:16.187Z,5.1675
2019-04-14T10:36:19.899Z,5.1776
2019-04-14T10:37:22.777Z,5.1776
2019-04-14T10:38:25.196Z,5.2078
2019-04-14T10:39:28.181Z,5.2682
2019-04-14T10:40:31.189Z,5.3287
2019-04-14T10:41:34.189Z,5.3589
2019-04-14T10:42:37.184Z,5.3891
2019-04-14T10:43:40.882Z,5.4193
2019-04-14T10:44:44.138Z,5.4495
2019-04-14T10:45:47.182Z,5.4596
2019-04-14T10:46:50.988Z,5.4294
2019-04-14T10:47:54.854Z,5.4193
2019-04-14T10:48:57.920Z,5.3589
2019-04-14T10:50:01.273Z,5.3287
2019-04-14T10:51:04.836Z,5.3085
2019-04-14T10:52:07.955Z,5.3287
2019-04-14T10:53:11.199Z,5.3891
2019-04-14T10:54:14.835Z,5.4596
2019-04-14T10:55:18.043Z,5.5402
2019-04-14T10:56:20.195Z,5.6409
2019-04-14T10:57:23.200Z,5.7617
2019-04-14T10:58:26.897Z,5.8926
2019-04-14T10:59:30.175Z,6.0034
2019-04-14T11:00:32.808Z,6.1545
2019-04-14T11:01:35.851Z,6.2451
2019-04-14T11:02:38.971Z,6.3257
2019-04-14T11:03:42.871Z,6.3257
2019-04-14T11:04:45.964Z,6.2451
2019-04-14T11:05:49.181Z,6.1847
2019-04-14T11:06:52.451Z,6.1444
2019-04-14T11:07:58.215Z,6.0638
2019-04-14T11:09:01.197Z,5.9631
2019-04-14T11:10:04.186Z,5.8221
2019-04-14T11:11:07.174Z,5.6509
2019-04-14T11:12:10.196Z,5.5301
2019-04-14T11:13:13.186Z,5.4193
2019-04-14T11:14:16.876Z,5.3488
2019-04-14T11:15:19.242Z,5.3287
2019-04-14T11:16:22.221Z,5.2783
2019-04-14T11:17:24.173Z,5.2783
2019-04-14T11:18:27.193Z,5.2985
2019-04-14T11:19:30.194Z,5.3085
2019-04-14T11:20:33.193Z,5.3488
2019-04-14T11:21:42.283Z,5.3891
2019-04-14T11:22:44.182Z,5.4596
2019-04-14T11:23:47.883Z,5.5402
2019-04-14T11:24:50.240Z,5.6308
2019-04-14T11:25:54.097Z,5.7214
2019-04-14T11:26:57.903Z,5.8121
2019-04-14T11:28:00.258Z,5.8926
2019-04-14T11:29:03.824Z,5.8926
2019-04-14T11:30:06.983Z,5.9329
2019-04-14T11:31:10.213Z,5.9933
2019-04-14T11:32:13.989Z,6.0638
2019-04-14T11:33:32.548Z,6.1545
2019-04-14T11:34:56.181Z,6.2653
2019-04-14T11:35:59.197Z,6.3962
2019-04-14T11:37:02.204Z,6.5170
2019-04-14T11:38:05.182Z,6.6580
2019-04-14T11:39:10.218Z,6.7084
2019-04-14T11:40:15.227Z,6.7587
2019-04-14T11:41:18.800Z,6.7990
2019-04-14T11:42:21.771Z,6.8393
2019-04-14T11:43:24.783Z,6.8796
2019-04-14T11:44:27.197Z,6.8494
2019-04-14T11:45:30.202Z,6.8393
2019-04-14T11:46:33.186Z,6.7889
2019-04-14T11:47:36.212Z,6.7587
2019-04-14T11:48:39.219Z,6.7084
2019-04-14T11:49:42.194Z,6.6983
2019-04-14T11:50:45.187Z,6.6983
2019-04-14T11:51:55.325Z,6.7386
2019-04-14T11:52:56.190Z,6.7587
2019-04-14T11:53:59.059Z,6.7990
2019-04-14T11:55:02.951Z,6.7990
2019-04-14T11:56:07.029Z,6.8393
2019-04-14T11:57:09.192Z,6.8896
2019-04-14T11:58:13.081Z,6.9199
2019-04-14T11:59:16.184Z,6.9702
2019-04-14T12:00:19.189Z,7.0306
2019-04-14T12:01:22.963Z,7.0911
2019-04-14T12:02:27.451Z,7.1213
2019-04-14T12:03:32.261Z,7.1313
2019-04-14T12:04:35.887Z,7.1011
2019-04-14T12:05:38.851Z,7.0709
2019-04-14T12:06:41.921Z,7.0508
2019-04-14T12:07:45.952Z,7.0206
2019-04-14T12:08:49.949Z,6.9098
2019-04-14T12:09:53.174Z,6.8091
2019-04-14T12:10:56.185Z,6.6681
2019-04-14T12:11:59.215Z,6.5775
2019-04-14T12:13:02.180Z,6.4767
2019-04-14T12:14:05.183Z,6.4062
2019-04-14T12:15:12.231Z,6.3559
2019-04-14T12:16:16.833Z,6.2653
2019-04-14T12:17:19.964Z,6.1847
2019-04-14T12:18:23.761Z,6.0840
2019-04-14T12:19:26.912Z,5.9732
2019-04-14T12:20:30.838Z,5.8322
2019-04-14T12:21:33.188Z,5.7114
2019-04-14T12:22:36.980Z,5.6107
2019-04-14T12:23:40.975Z,5.5301
2019-04-14T12:24:44.170Z,5.4596
2019-04-14T12:25:47.876Z,5.3992
2019-04-14T12:26:50.193Z,5.3488
2019-04-14T12:27:53.545Z,5.2985
2019-04-14T12:28:56.825Z,5.2783
2019-04-14T12:30:00.961Z,5.2682
2019-04-14T12:31:04.197Z,5.2481
2019-04-14T12:32:08.535Z,5.2682
2019-04-14T12:33:11.893Z,5.3085
2019-04-14T12:34:14.250Z,5.3488
2019-04-14T12:35:17.706Z,5.3992
2019-04-14T12:36:21.088Z,5.4898
2019-04-14T12:37:25.249Z,5.5804
2019-04-14T12:38:28.956Z,5.6812
2019-04-14T12:39:32.206Z,5.8121
2019-04-14T12:40:35.209Z,5.9329
2019-04-14T12:41:39.945Z,6.0437
2019-04-14T12:42:43.864Z,6.1444
2019-04-14T12:43:46.185Z,6.2149
2019-04-14T12:44:50.562Z,6.3055
2019-04-14T12:45:53.713Z,6.4264
2019-04-14T12:46:56.305Z,6.5170
2019-04-14T12:47:58.189Z,6.5573
2019-04-14T12:49:01.205Z,6.6177
2019-04-14T12:50:03.174Z,6.6882
2019-04-14T12:51:06.175Z,6.7084
2019-04-14T12:52:20.614Z,6.7386
2019-04-14T12:53:17.190Z,6.7587
2019-04-14T12:54:20.187Z,6.7889
2019-04-14T12:55:23.845Z,6.8091
2019-04-14T12:56:26.831Z,6.8695
2019-04-14T12:57:29.754Z,6.9098
2019-04-14T12:58:33.056Z,6.9702
2019-04-14T12:59:38.017Z,7.0306
2019-04-14T13:00:41.949Z,7.0911
2019-04-14T13:01:46.068Z,7.1011
2019-04-14T13:02:49.951Z,7.1313
2019-04-14T13:03:53.945Z,7.1515
2019-04-14T13:04:57.355Z,7.1616
2019-04-14T13:06:00.888Z,7.1515
2019-04-14T13:07:04.105Z,7.1616
2019-04-14T13:08:07.183Z,7.1515
2019-04-14T13:09:10.530Z,7.1213
2019-04-14T13:10:14.288Z,7.0911
2019-04-14T13:11:17.199Z,7.0306
2019-04-14T13:12:20.896Z,6.9501
2019-04-14T13:13:24.002Z,6.8896
2019-04-14T13:14:27.602Z,6.8695
2019-04-14T13:15:30.928Z,6.8091
2019-04-14T13:16:34.183Z,6.7688
2019-04-14T13:17:38.060Z,6.7084
2019-04-14T13:18:40.814Z,6.6379
2019-04-14T13:19:43.183Z,6.6177
2019-04-14T13:20:46.199Z,6.5875
2019-04-14T13:21:49.878Z,6.5472
2019-04-14T13:22:52.242Z,6.4868
2019-04-14T13:23:55.854Z,6.4264
2019-04-14T13:24:58.197Z,6.3760
2019-04-14T13:26:01.170Z,6.3257
2019-04-14T13:27:04.168Z,6.2250
2019-04-14T13:28:07.203Z,6.1847
2019-04-14T13:29:10.180Z,6.1243
2019-04-14T13:30:13.193Z,6.0638
2019-04-14T13:31:16.197Z,6.0034
2019-04-14T13:32:19.197Z,5.9430
2019-04-14T13:33:22.205Z,5.8926
2019-04-14T13:34:25.880Z,5.8121
2019-04-14T13:35:29.210Z,5.7516